Time;durP1;ratioP1;P1;durP2;ratioP2;P2;SDS_P1;SDS_P2;PMS_P1;PMS_P2;Temp;Humidity;BMP_temperature;BMP_pressure;BME280_temperature;BME280_humidity;BME280_pressure;Samples;Min_cycle;Max_cycle;Signal;HPM_P1;HPM_P2
2023/07/16 00:00:45;;;;;;;11.15;5.97;;;22.10;99.90;;;;;;4995249;28;20034;-81
2023/07/16 00:03:31;;;;;;;11.18;5.78;;;22.20;99.90;;;;;;4993715;28;20517;-79
2023/07/16 00:06:17;;;;;;;9.98;5.60;;;22.20;99.90;;;;;;5017906;28;20081;-80
2023/07/16 00:09:03;;;;;;;10.50;5.30;;;22.20;99.90;;;;;;4982239;28;20041;-79
2023/07/16 00:11:49;;;;;;;11.20;5.38;;;22.10;99.90;;;;;;4997408;28;20081;-79
2023/07/16 00:14:35;;;;;;;8.25;4.80;;;21.90;99.90;;;;;;5014115;28;20034;-79
2023/07/16 00:17:21;;;;;;;6.13;4.00;;;22.10;99.90;;;;;;5000819;28;20046;-79
2023/07/16 00:20:07;;;;;;;12.07;5.00;;;22.00;99.90;;;;;;5003562;28;20470;-79
2023/07/16 00:22:54;;;;;;;6.97;4.10;;;22.00;99.90;;;;;;4995594;28;20374;-79
2023/07/16 00:25:40;;;;;;;8.80;5.10;;;22.00;99.90;;;;;;4996085;28;20458;-79
2023/07/16 00:28:26;;;;;;;7.85;4.68;;;22.00;99.90;;;;;;4988122;28;20045;-79
2023/07/16 00:31:12;;;;;;;10.82;4.65;;;21.90;99.90;;;;;;4979595;28;20079;-79
2023/07/16 00:33:58;;;;;;;9.23;4.82;;;21.90;99.90;;;;;;4979060;28;20045;-78
2023/07/16 00:36:44;;;;;;;9.13;5.32;;;22.00;99.90;;;;;;5002408;28;20038;-79
2023/07/16 00:39:30;;;;;;;9.20;4.75;;;21.90;99.90;;;;;;4989359;28;20490;-78
2023/07/16 00:42:16;;;;;;;7.13;4.57;;;22.00;99.90;;;;;;5010501;28;20038;-79
2023/07/16 00:45:03;;;;;;;7.25;4.85;;;21.90;99.90;;;;;;4983013;28;20041;-80
2023/07/16 00:47:49;;;;;;;8.63;4.03;;;21.90;99.90;;;;;;5001073;28;20080;-79
2023/07/16 00:50:38;;;;;;;9.77;4.53;;;21.80;99.90;;;;;;4995727;28;20041;-79
2023/07/16 00:53:24;;;;;;;5.90;3.60;;;21.90;99.90;;;;;;4995760;28;20046;-79
2023/07/16 00:56:11;;;;;;;6.38;3.70;;;21.90;99.90;;;;;;4998515;28;20073;-79
2023/07/16 00:58:57;;;;;;;5.60;3.67;;;21.80;99.90;;;;;;5001257;28;20106;-79
2023/07/16 01:01:43;;;;;;;7.18;3.83;;;21.90;99.90;;;;;;5000742;28;20060;-80
2023/07/16 01:04:29;;;;;;;5.63;3.40;;;21.90;99.90;;;;;;4998789;28;20048;-79
2023/07/16 01:07:15;;;;;;;8.25;3.50;;;21.80;99.90;;;;;;5013198;28;20037;-79
2023/07/16 01:10:02;;;;;;;6.85;3.88;;;21.90;99.90;;;;;;4998382;28;20460;-79
2023/07/16 01:12:49;;;;;;;8.13;3.75;;;22.00;99.90;;;;;;4996932;28;20061;-79
2023/07/16 01:15:35;;;;;;;7.70;3.50;;;22.00;99.90;;;;;;5005078;28;20377;-78
2023/07/16 01:18:21;;;;;;;8.63;4.20;;;22.00;99.90;;;;;;5004695;28;20362;-78
2023/07/16 01:21:08;;;;;;;7.22;3.58;;;22.10;99.90;;;;;;5011221;28;20101;-79
2023/07/16 01:24:28;;;;;;;6.97;4.07;;;22.10;99.90;;;;;;4997391;28;20104;-80
2023/07/16 01:27:45;;;;;;;8.68;4.03;;;22.00;99.90;;;;;;5001347;28;20268;-79
2023/07/16 01:30:31;;;;;;;8.68;4.00;;;21.90;99.90;;;;;;5002842;28;20048;-79
2023/07/16 01:33:17;;;;;;;6.65;4.30;;;22.00;99.90;;;;;;4988418;28;20124;-80
2023/07/16 01:36:03;;;;;;;7.18;3.20;;;21.90;99.90;;;;;;4977816;28;20037;-79
2023/07/16 01:38:49;;;;;;;5.80;3.20;;;21.80;99.90;;;;;;4991032;28;20137;-79
2023/07/16 01:41:34;;;;;;;4.53;2.97;;;21.90;99.90;;;;;;4990863;28;20393;-80
2023/07/16 01:44:20;;;;;;;4.55;3.17;;;22.00;99.90;;;;;;5008615;28;20050;-79
2023/07/16 01:47:23;;;;;;;6.05;3.30;;;22.10;99.90;;;;;;5007553;28;20053;-79
2023/07/16 01:50:10;;;;;;;5.97;3.03;;;22.10;99.90;;;;;;4994762;28;20528;-79
2023/07/16 01:52:56;;;;;;;6.32;3.65;;;22.00;99.90;;;;;;5009062;28;20060;-79
2023/07/16 01:55:42;;;;;;;7.93;3.00;;;22.00;99.90;;;;;;4973758;28;20038;-79
2023/07/16 01:58:28;;;;;;;6.38;3.13;;;22.00;99.90;;;;;;4984919;28;20050;-79
2023/07/16 02:01:14;;;;;;;4.90;2.97;;;22.00;99.90;;;;;;5012657;28;20037;-80
2023/07/16 02:04:00;;;;;;;5.20;3.50;;;22.10;99.90;;;;;;4998642;28;20131;-79
2023/07/16 02:06:47;;;;;;;4.72;3.03;;;22.10;99.90;;;;;;5002860;28;20050;-79
2023/07/16 02:09:34;;;;;;;4.47;3.23;;;22.10;99.90;;;;;;4997948;28;20045;-79
2023/07/16 02:12:20;;;;;;;7.28;3.63;;;22.10;99.90;;;;;;5009425;28;20478;-79
2023/07/16 02:15:06;;;;;;;5.72;3.28;;;22.10;99.90;;;;;;5006760;28;20060;-80
2023/07/16 02:17:52;;;;;;;5.55;3.30;;;22.10;99.90;;;;;;4991608;28;20052;-79
2023/07/16 02:20:38;;;;;;;6.18;3.35;;;22.10;99.90;;;;;;4992932;28;20490;-79
2023/07/16 02:23:24;;;;;;;5.28;3.60;;;22.10;99.90;;;;;;4999690;28;20068;-79
2023/07/16 02:26:10;;;;;;;5.65;3.38;;;22.10;99.90;;;;;;4982430;28;20136;-79
2023/07/16 02:28:56;;;;;;;7.35;2.95;;;22.10;99.90;;;;;;4982383;28;20046;-79
2023/07/16 02:31:45;;;;;;;6.93;3.30;;;22.00;99.90;;;;;;4984561;28;20038;-80
2023/07/16 02:34:31;;;;;;;6.93;3.72;;;22.00;99.90;;;;;;4979344;28;20148;-79
2023/07/16 02:37:17;;;;;;;5.28;3.20;;;21.50;99.90;;;;;;4999242;28;20045;-80
2023/07/16 02:40:05;;;;;;;6.03;3.50;;;21.50;99.90;;;;;;5001149;28;20360;-79
2023/07/16 02:42:51;;;;;;;5.47;3.08;;;21.50;99.90;;;;;;4985734;28;20414;-79
2023/07/16 02:45:37;;;;;;;5.63;4.13;;;21.60;99.90;;;;;;4991099;28;20120;-80
2023/07/16 02:48:23;;;;;;;5.93;3.78;;;21.60;99.90;;;;;;4989218;28;20041;-80
2023/07/16 02:51:09;;;;;;;6.20;3.75;;;21.60;99.90;;;;;;4989002;28;20049;-81
2023/07/16 02:53:55;;;;;;;4.65;2.20;;;21.40;99.90;;;;;;5001732;28;20051;-78
2023/07/16 02:56:41;;;;;;;4.22;2.35;;;20.70;99.90;;;;;;4984020;28;20042;-78
2023/07/16 02:59:27;;;;;;;6.72;2.97;;;20.50;99.90;;;;;;5006628;28;20044;-79
2023/07/16 03:02:13;;;;;;;7.38;2.75;;;20.00;99.90;;;;;;4999587;28;20116;-79
2023/07/16 03:04:59;;;;;;;5.45;2.10;;;20.00;99.90;;;;;;4992415;28;20045;-80
2023/07/16 03:07:45;;;;;;;5.80;2.10;;;20.30;99.90;;;;;;5021713;28;20100;-80
2023/07/16 03:10:31;;;;;;;4.40;1.98;;;20.30;99.90;;;;;;5011826;28;20092;-80
2023/07/16 03:13:17;;;;;;;4.07;2.20;;;20.30;99.90;;;;;;4981328;28;20042;-80
2023/07/16 03:16:03;;;;;;;4.55;2.17;;;20.50;99.90;;;;;;5006373;28;20568;-81
2023/07/16 03:18:49;;;;;;;4.90;2.00;;;20.60;99.90;;;;;;5005015;28;20550;-80
2023/07/16 03:21:35;;;;;;;5.05;2.15;;;20.60;99.90;;;;;;4996502;28;20043;-80
2023/07/16 03:24:21;;;;;;;4.22;2.05;;;20.60;99.90;;;;;;5021076;28;20132;-80
2023/07/16 03:27:07;;;;;;;4.82;2.10;;;20.50;99.90;;;;;;4991674;28;20057;-80
2023/07/16 03:29:53;;;;;;;6.20;2.10;;;20.50;99.90;;;;;;5022500;28;20056;-80
2023/07/16 03:32:39;;;;;;;5.43;2.15;;;20.50;99.90;;;;;;5000632;28;20116;-81
2023/07/16 03:35:26;;;;;;;7.43;2.50;;;20.50;99.90;;;;;;5014588;28;20056;-81
2023/07/16 03:38:12;;;;;;;7.40;2.40;;;20.50;99.90;;;;;;4988485;28;20052;-81
2023/07/16 03:40:58;;;;;;;7.93;2.47;;;20.50;99.90;;;;;;5005670;28;20041;-81
2023/07/16 03:43:45;;;;;;;5.18;2.42;;;20.40;99.90;;;;;;5006060;28;20537;-79
2023/07/16 03:46:31;;;;;;;7.40;2.38;;;20.40;99.90;;;;;;5007124;28;20129;-80
2023/07/16 03:49:18;;;;;;;4.25;2.20;;;20.40;99.90;;;;;;5005572;28;20041;-80
2023/07/16 03:52:04;;;;;;;5.73;2.50;;;20.40;99.90;;;;;;4997839;28;20073;-81
2023/07/16 03:54:53;;;;;;;5.38;2.35;;;20.40;99.90;;;;;;4987468;28;20337;-79
2023/07/16 03:57:39;;;;;;;6.97;2.40;;;20.40;99.90;;;;;;4994629;28;20498;-81
2023/07/16 04:00:25;;;;;;;4.65;2.50;;;20.40;99.90;;;;;;5011031;28;20041;-81
2023/07/16 04:03:11;;;;;;;5.00;2.38;;;20.40;99.90;;;;;;5003043;28;20054;-79
2023/07/16 04:06:09;;;;;;;4.70;2.50;;;20.40;99.90;;;;;;5011432;28;20072;-81
2023/07/16 04:08:54;;;;;;;;;;;20.40;99.90;;;;;;4988534;28;20076;-78
2023/07/16 04:11:41;;;;;;;7.45;2.72;;;20.40;99.90;;;;;;5015692;28;19931;-78
2023/07/16 04:14:27;;;;;;;5.93;2.60;;;20.40;99.90;;;;;;5019722;28;20134;-79
2023/07/16 04:17:13;;;;;;;5.25;2.03;;;20.40;99.90;;;;;;4976231;28;20033;-81
2023/07/16 04:19:59;;;;;;;6.97;2.20;;;20.40;99.90;;;;;;4986317;28;20467;-80
2023/07/16 04:22:45;;;;;;;5.70;2.40;;;20.40;99.90;;;;;;4991511;28;20049;-79
2023/07/16 04:25:31;;;;;;;9.23;2.30;;;20.40;99.90;;;;;;4987191;28;20046;-80
2023/07/16 04:28:17;;;;;;;5.75;2.70;;;20.40;99.90;;;;;;5003442;28;20045;-80
2023/07/16 04:31:03;;;;;;;5.55;2.30;;;20.40;99.90;;;;;;4994592;28;20069;-80
2023/07/16 04:33:49;;;;;;;5.50;2.40;;;20.40;99.90;;;;;;4992789;28;20056;-80
2023/07/16 04:36:35;;;;;;;3.58;2.30;;;20.30;99.90;;;;;;4993146;28;20034;-79
2023/07/16 04:39:21;;;;;;;3.70;2.08;;;20.30;99.90;;;;;;4988692;28;20049;-80
2023/07/16 04:42:07;;;;;;;4.20;2.20;;;20.30;99.90;;;;;;5008779;28;20057;-83
2023/07/16 04:44:53;;;;;;;6.53;2.40;;;20.30;99.90;;;;;;5007157;28;20048;-80
2023/07/16 04:47:39;;;;;;;4.15;2.30;;;20.30;99.90;;;;;;5003587;28;20046;-80
2023/07/16 04:50:25;;;;;;;7.57;2.88;;;20.20;99.90;;;;;;5004005;28;20069;-81
2023/07/16 04:53:11;;;;;;;7.45;2.85;;;20.20;99.90;;;;;;5004686;28;20048;-80
2023/07/16 04:55:57;;;;;;;5.15;2.47;;;20.20;99.90;;;;;;5003559;28;20112;-81
2023/07/16 04:58:43;;;;;;;5.05;2.30;;;20.20;99.90;;;;;;4991275;28;20053;-77
2023/07/16 05:01:29;;;;;;;4.68;2.00;;;20.10;99.90;;;;;;4999322;28;20038;-77
2023/07/16 05:04:15;;;;;;;6.30;2.50;;;20.10;99.90;;;;;;4988466;28;20053;-78
2023/07/16 05:07:02;;;;;;;4.97;2.22;;;20.00;99.90;;;;;;5013611;28;20068;-78
2023/07/16 05:09:48;;;;;;;5.33;2.37;;;19.90;99.90;;;;;;4988765;28;20129;-77
2023/07/16 05:12:34;;;;;;;7.15;2.95;;;19.80;99.90;;;;;;5014591;28;20445;-77
2023/07/16 05:15:20;;;;;;;5.72;3.05;;;19.70;99.90;;;;;;5004446;28;20038;-77
2023/07/16 05:18:06;;;;;;;5.15;2.10;;;19.60;99.90;;;;;;4980069;28;20042;-77
2023/07/16 05:20:52;;;;;;;5.75;2.22;;;19.60;99.90;;;;;;4985511;28;20367;-77
2023/07/16 05:23:37;;;;;;;4.10;2.00;;;19.40;99.90;;;;;;4996173;28;20041;-76
2023/07/16 05:26:23;;;;;;;5.25;1.85;;;19.40;99.90;;;;;;4997366;28;20110;-77
2023/07/16 05:29:09;;;;;;;6.38;2.10;;;19.50;99.90;;;;;;4995296;28;20048;-77
2023/07/16 05:31:55;;;;;;;4.53;2.00;;;19.50;99.90;;;;;;4977583;28;20042;-76
2023/07/16 05:34:41;;;;;;;4.93;2.30;;;19.50;99.90;;;;;;5010093;28;20085;-76
2023/07/16 05:37:27;;;;;;;6.18;2.30;;;19.50;99.90;;;;;;5006838;28;20585;-76
2023/07/16 05:40:14;;;;;;;6.43;2.40;;;19.40;99.90;;;;;;5002107;28;20542;-76
2023/07/16 05:43:00;;;;;;;3.65;2.00;;;19.40;99.90;;;;;;5004393;28;20172;-77
2023/07/16 05:45:46;;;;;;;5.13;2.45;;;19.50;99.90;;;;;;4972319;28;20046;-77
2023/07/16 05:48:32;;;;;;;4.65;2.00;;;19.60;99.90;;;;;;4991135;28;20041;-77
2023/07/16 05:51:18;;;;;;;6.45;2.60;;;19.60;99.90;;;;;;4987380;28;20041;-78
2023/07/16 05:54:04;;;;;;;3.85;1.98;;;19.60;99.90;;;;;;4987588;28;20081;-78
2023/07/16 05:56:50;;;;;;;4.47;2.38;;;19.60;99.90;;;;;;5003310;28;20265;-78
2023/07/16 05:59:37;;;;;;;8.55;2.50;;;19.60;99.90;;;;;;5010330;28;20052;-79
2023/07/16 06:02:23;;;;;;;5.65;1.90;;;19.70;99.90;;;;;;4996490;28;20425;-79
2023/07/16 06:05:09;;;;;;;4.18;2.00;;;19.70;99.90;;;;;;4983686;28;20128;-79
2023/07/16 06:07:55;;;;;;;3.58;1.83;;;19.70;99.90;;;;;;4997367;28;20046;-78
2023/07/16 06:10:41;;;;;;;5.80;1.90;;;19.70;99.90;;;;;;5004117;28;20046;-79
2023/07/16 06:13:27;;;;;;;6.70;2.42;;;19.70;99.90;;;;;;4998042;28;20050;-80
2023/07/16 06:16:13;;;;;;;5.05;1.75;;;19.80;99.90;;;;;;4988200;28;20042;-79
2023/07/16 06:18:59;;;;;;;4.85;2.10;;;19.80;99.90;;;;;;5000323;28;20103;-79
2023/07/16 06:21:45;;;;;;;6.40;1.83;;;19.90;99.90;;;;;;4989048;28;20188;-79
2023/07/16 06:24:31;;;;;;;4.18;2.00;;;19.90;99.90;;;;;;4990950;28;20132;-79
2023/07/16 06:27:16;;;;;;;7.93;2.13;;;19.90;99.90;;;;;;5008422;28;20049;-79
2023/07/16 06:30:03;;;;;;;5.00;1.90;;;20.00;99.90;;;;;;5008341;28;20116;-79
2023/07/16 06:32:49;;;;;;;3.90;1.90;;;20.00;99.90;;;;;;4986453;28;20421;-79
2023/07/16 06:35:35;;;;;;;7.22;2.55;;;20.00;99.90;;;;;;5010005;28;20037;-79
2023/07/16 06:38:22;;;;;;;6.07;2.03;;;20.10;99.90;;;;;;4987296;28;20042;-78
2023/07/16 06:41:08;;;;;;;4.72;1.90;;;20.10;99.90;;;;;;4997513;28;20104;-79
2023/07/16 06:43:54;;;;;;;6.18;1.92;;;20.20;99.90;;;;;;4998647;28;20048;-79
2023/07/16 06:46:40;;;;;;;4.22;2.00;;;20.20;99.90;;;;;;4970217;28;20085;-79
2023/07/16 06:49:26;;;;;;;4.53;1.90;;;20.20;99.90;;;;;;5001592;28;20042;-79
2023/07/16 06:52:22;;;;;;;5.43;2.33;;;20.20;99.90;;;;;;4990506;28;20056;-79
2023/07/16 06:55:08;;;;;;;6.05;1.90;;;20.40;99.90;;;;;;4979494;28;20038;-79
2023/07/16 06:57:54;;;;;;;4.50;1.95;;;20.40;99.90;;;;;;5007934;28;20120;-79
2023/07/16 07:00:40;;;;;;;5.40;1.92;;;20.40;99.90;;;;;;4992130;28;20053;-79
2023/07/16 07:03:27;;;;;;;6.00;2.42;;;20.50;99.90;;;;;;4999761;28;20053;-79
2023/07/16 07:06:13;;;;;;;5.60;1.90;;;20.50;99.90;;;;;;5002503;28;20052;-79
2023/07/16 07:08:59;;;;;;;3.70;2.15;;;20.60;99.90;;;;;;4989638;28;20398;-78
2023/07/16 07:11:45;;;;;;;5.93;1.90;;;20.60;99.90;;;;;;4993817;28;20550;-79
2023/07/16 07:14:32;;;;;;;5.25;2.13;;;20.60;99.90;;;;;;4982954;28;20389;-79
2023/07/16 07:17:18;;;;;;;4.18;1.90;;;20.70;99.90;;;;;;5000980;28;20041;-75
2023/07/16 07:20:05;;;;;;;5.55;2.45;;;20.60;99.90;;;;;;4993415;28;20081;-75
2023/07/16 07:22:51;;;;;;;7.72;2.15;;;20.70;99.90;;;;;;4997382;28;20045;-76
2023/07/16 07:25:37;;;;;;;4.78;2.10;;;20.80;99.90;;;;;;4991911;28;20120;-78
2023/07/16 07:28:23;;;;;;;5.68;1.95;;;21.00;99.90;;;;;;5001400;28;20041;-77
2023/07/16 07:31:10;;;;;;;4.03;1.98;;;21.20;99.90;;;;;;4989959;28;20069;-75
2023/07/16 07:33:58;;;;;;;3.60;1.70;;;21.10;99.90;;;;;;5008268;28;20096;-76
2023/07/16 07:36:44;;;;;;;4.50;2.15;;;21.10;99.90;;;;;;4997333;28;20041;-75
2023/07/16 07:39:30;;;;;;;4.95;2.00;;;21.10;99.90;;;;;;5004331;28;20042;-77
2023/07/16 07:42:16;;;;;;;5.30;1.88;;;21.20;99.90;;;;;;5005679;28;20038;-74
2023/07/16 07:45:02;;;;;;;4.40;1.83;;;21.20;99.90;;;;;;4992477;28;20135;-74
2023/07/16 07:47:48;;;;;;;5.25;1.80;;;21.10;99.90;;;;;;4999001;28;20060;-74
2023/07/16 07:50:34;;;;;;;4.78;1.55;;;21.30;99.90;;;;;;5004918;28;20077;-74
2023/07/16 07:53:20;;;;;;;5.50;1.90;;;21.30;99.20;;;;;;4998746;28;20092;-75
2023/07/16 07:56:07;;;;;;;3.70;1.73;;;21.40;98.80;;;;;;4986533;28;20041;-75
2023/07/16 07:58:53;;;;;;;6.60;1.83;;;21.60;99.00;;;;;;4981820;28;20034;-75
2023/07/16 08:01:39;;;;;;;7.75;1.95;;;21.60;97.30;;;;;;4979897;28;20562;-75
2023/07/16 08:04:25;;;;;;;3.10;1.55;;;21.50;97.60;;;;;;5001666;28;20378;-74
2023/07/16 08:07:11;;;;;;;5.78;1.70;;;21.60;97.80;;;;;;4995777;28;20118;-74
2023/07/16 08:09:57;;;;;;;4.65;1.45;;;21.60;96.80;;;;;;5004066;28;20458;-74
2023/07/16 08:12:43;;;;;;;7.90;1.83;;;21.60;95.80;;;;;;5009259;28;20053;-74
2023/07/16 08:15:29;;;;;;;3.58;1.58;;;21.70;95.60;;;;;;4966092;28;20046;-74
2023/07/16 08:18:15;;;;;;;3.85;1.60;;;21.80;94.70;;;;;;5007172;28;20513;-74
2023/07/16 08:21:01;;;;;;;3.88;1.58;;;21.80;94.40;;;;;;5005118;28;20053;-74
2023/07/16 08:23:50;;;;;;;2.85;1.33;;;21.80;94.80;;;;;;4982651;28;20049;-74
2023/07/16 08:26:36;;;;;;;8.70;1.92;;;21.90;94.40;;;;;;5007830;28;20099;-75
2023/07/16 08:29:22;;;;;;;4.88;1.58;;;21.90;93.70;;;;;;4987753;28;20057;-74
2023/07/16 08:32:08;;;;;;;6.30;1.58;;;22.00;93.80;;;;;;5011875;28;20041;-74
2023/07/16 08:34:57;;;;;;;7.75;1.90;;;22.00;94.00;;;;;;4983220;28;20462;-75
2023/07/16 08:37:44;;;;;;;5.30;1.80;;;22.10;94.10;;;;;;5017146;28;20122;-74
2023/07/16 08:40:30;;;;;;;4.50;1.80;;;22.10;93.30;;;;;;5002434;28;20033;-74
2023/07/16 08:43:18;;;;;;;3.85;1.50;;;22.10;93.50;;;;;;4970331;28;20038;-74
2023/07/16 08:46:04;;;;;;;4.85;1.60;;;22.30;93.80;;;;;;5009935;28;20049;-74
2023/07/16 08:48:50;;;;;;;4.90;1.67;;;22.20;92.60;;;;;;5001689;28;20147;-73
2023/07/16 08:51:36;;;;;;;5.75;1.90;;;22.20;93.00;;;;;;4977620;28;20045;-74
2023/07/16 08:54:22;;;;;;;6.95;2.22;;;22.20;93.60;;;;;;4992686;28;20038;-74
2023/07/16 08:57:08;;;;;;;7.70;2.13;;;22.00;92.30;;;;;;5007487;28;20067;-74
2023/07/16 08:59:54;;;;;;;5.05;1.77;;;22.00;93.20;;;;;;4994883;28;20038;-75
2023/07/16 09:02:40;;;;;;;5.28;1.75;;;22.00;92.90;;;;;;4977828;28;20701;-75
2023/07/16 09:05:26;;;;;;;3.50;1.73;;;22.10;93.00;;;;;;4987229;28;20675;-75
2023/07/16 09:08:13;;;;;;;5.75;1.92;;;22.00;93.70;;;;;;4985755;28;20042;-75
2023/07/16 09:10:59;;;;;;;5.22;1.70;;;21.90;93.70;;;;;;4991367;28;20038;-75
2023/07/16 09:13:45;;;;;;;6.55;1.98;;;21.90;92.90;;;;;;4993624;28;20054;-75
2023/07/16 09:16:34;;;;;;;5.35;1.63;;;22.00;91.50;;;;;;4993021;28;20042;-75
2023/07/16 09:19:20;;;;;;;5.75;1.95;;;22.10;91.70;;;;;;5002083;28;20049;-75
2023/07/16 09:22:08;;;;;;;5.70;1.88;;;22.30;91.60;;;;;;4989639;28;20061;-75
2023/07/16 09:24:56;;;;;;;7.85;2.17;;;22.40;92.70;;;;;;5000589;28;20497;-75
2023/07/16 09:27:42;;;;;;;10.27;2.85;;;22.50;91.90;;;;;;4995320;28;20046;-75
2023/07/16 09:30:33;;;;;;;5.15;1.98;;;22.40;92.10;;;;;;4999563;28;20470;-74
2023/07/16 09:33:21;;;;;;;4.75;2.00;;;22.60;92.80;;;;;;4978686;28;20046;-74
2023/07/16 09:36:07;;;;;;;5.88;1.88;;;22.70;91.60;;;;;;4998166;28;20038;-75
2023/07/16 09:38:56;;;;;;;4.85;1.75;;;22.70;91.80;;;;;;5004331;28;20048;-73
2023/07/16 09:41:42;;;;;;;6.60;1.70;;;22.80;91.80;;;;;;4991567;28;20038;-74
2023/07/16 09:44:28;;;;;;;5.20;1.83;;;22.90;90.90;;;;;;4988839;28;20042;-73
2023/07/16 09:47:13;;;;;;;4.80;1.83;;;22.90;91.50;;;;;;4998078;28;20108;-74
2023/07/16 09:49:59;;;;;;;5.45;1.90;;;23.00;90.80;;;;;;4986203;28;20042;-74
2023/07/16 09:52:46;;;;;;;5.85;1.80;;;23.00;91.10;;;;;;5001849;28;20072;-75
2023/07/16 09:55:35;;;;;;;5.78;1.52;;;23.10;89.40;;;;;;4978239;28;20087;-74
2023/07/16 09:58:22;;;;;;;4.20;1.67;;;23.20;87.70;;;;;;4986684;28;20513;-74
2023/07/16 10:01:08;;;;;;;6.57;2.00;;;23.20;89.30;;;;;;5003398;28;20054;-74
2023/07/16 10:03:54;;;;;;;7.70;1.65;;;23.30;87.50;;;;;;4993305;28;20097;-75
2023/07/16 10:06:58;;;;;;;8.07;2.25;;;23.10;85.50;;;;;;5011565;28;20045;-74
2023/07/16 10:09:57;;;;;;;5.68;1.90;;;23.30;85.00;;;;;;4994840;28;20096;-78
2023/07/16 10:12:43;;;;;;;4.75;1.90;;;23.20;87.20;;;;;;5013007;28;20053;-75
2023/07/16 10:15:29;;;;;;;7.85;2.30;;;23.60;84.90;;;;;;5006037;28;20037;-79
2023/07/16 10:18:25;;;;;;;5.45;1.83;;;23.60;86.00;;;;;;5009318;28;20033;-77
2023/07/16 10:21:11;;;;;;;4.85;1.80;;;23.40;84.30;;;;;;4994522;28;20048;-77
2023/07/16 10:24:00;;;;;;;3.30;1.70;;;23.30;83.40;;;;;;4999423;28;20108;-77
2023/07/16 10:26:46;;;;;;;4.68;1.75;;;23.50;83.90;;;;;;5003681;28;20667;-77
2023/07/16 10:29:33;;;;;;;5.72;2.45;;;23.50;82.50;;;;;;5014835;28;20481;-77
2023/07/16 10:32:18;;;;;;;8.27;1.90;;;23.20;83.90;;;;;;5014180;28;20045;-78
2023/07/16 10:35:05;;;;;;;5.93;1.95;;;23.20;83.00;;;;;;4992766;28;20041;-79
2023/07/16 10:37:54;;;;;;;4.95;2.20;;;23.50;83.60;;;;;;4998061;28;20065;-78
2023/07/16 10:40:44;;;;;;;5.30;1.95;;;23.60;81.80;;;;;;4990089;28;20037;-77
2023/07/16 10:43:30;;;;;;;6.68;2.03;;;23.90;84.00;;;;;;5003497;28;20478;-78
2023/07/16 10:46:16;;;;;;;8.05;2.05;;;23.90;81.60;;;;;;4991043;28;20045;-77
2023/07/16 10:49:02;;;;;;;5.25;2.08;;;24.00;83.20;;;;;;4998799;28;20115;-78
2023/07/16 10:51:48;;;;;;;5.63;2.00;;;24.10;83.40;;;;;;4997860;28;20132;-75
2023/07/16 10:54:34;;;;;;;6.93;2.03;;;24.30;81.20;;;;;;5005046;28;20129;-75
2023/07/16 10:57:24;;;;;;;6.65;1.98;;;24.30;80.60;;;;;;5003998;28;20033;-75
2023/07/16 11:00:10;;;;;;;3.70;1.70;;;24.40;80.80;;;;;;5001647;28;20470;-75
2023/07/16 11:02:57;;;;;;;5.28;2.20;;;24.40;80.60;;;;;;4999976;28;20064;-78
2023/07/16 11:05:46;;;;;;;6.07;1.98;;;24.20;78.00;;;;;;5000705;28;20124;-76
2023/07/16 11:08:32;;;;;;;4.28;1.80;;;24.10;79.70;;;;;;4993246;28;20041;-75
2023/07/16 11:11:28;;;;;;;5.15;1.80;;;24.20;79.70;;;;;;5002547;28;20083;-75
2023/07/16 11:14:14;;;;;;;3.20;1.90;;;24.10;77.50;;;;;;5007772;28;20049;-77
2023/07/16 11:17:06;;;;;;;4.82;1.90;;;24.40;76.90;;;;;;5003215;28;20042;-76
2023/07/16 11:19:52;;;;;;;6.63;2.17;;;24.50;75.80;;;;;;4977374;28;20045;-76
2023/07/16 11:22:38;;;;;;;3.95;1.75;;;24.70;77.40;;;;;;4987556;28;20531;-76
2023/07/16 11:25:24;;;;;;;7.28;1.90;;;24.50;76.10;;;;;;5007672;28;20046;-76
2023/07/16 11:28:10;;;;;;;5.93;1.60;;;24.30;76.80;;;;;;5003551;28;20529;-76
2023/07/16 11:30:56;;;;;;;6.70;1.90;;;24.30;76.50;;;;;;5004660;28;20112;-76
2023/07/16 11:33:45;;;;;;;4.88;1.92;;;24.40;77.80;;;;;;5000911;28;20049;-75
2023/07/16 11:36:31;;;;;;;4.90;2.58;;;24.30;76.10;;;;;;5003534;28;20850;-76
2023/07/16 11:39:18;;;;;;;8.52;4.80;;;24.30;76.20;;;;;;4999475;28;20073;-77
2023/07/16 11:42:04;;;;;;;7.18;2.88;;;24.40;76.10;;;;;;5004860;28;20460;-77
2023/07/16 11:44:50;;;;;;;7.80;3.47;;;24.60;75.90;;;;;;4983171;28;20049;-76
2023/07/16 11:47:37;;;;;;;4.95;2.40;;;24.80;77.50;;;;;;4991323;28;20041;-75
2023/07/16 11:50:23;;;;;;;4.85;1.95;;;24.90;77.70;;;;;;5004611;28;20046;-76
2023/07/16 11:53:09;;;;;;;8.10;2.50;;;25.20;77.30;;;;;;5004756;28;20042;-75
2023/07/16 11:55:55;;;;;;;4.60;2.17;;;25.10;75.70;;;;;;4984745;28;20039;-75
2023/07/16 11:58:41;;;;;;;5.25;1.98;;;25.20;76.10;;;;;;5006678;28;20080;-76
2023/07/16 12:01:27;;;;;;;4.78;2.10;;;25.20;73.20;;;;;;4991479;28;20055;-75
2023/07/16 12:04:13;;;;;;;4.75;1.98;;;25.00;74.20;;;;;;4994565;28;20042;-75
2023/07/16 12:06:59;;;;;;;5.20;1.90;;;25.00;75.10;;;;;;5000000;28;20124;-75
2023/07/16 12:09:45;;;;;;;5.75;2.20;;;25.20;74.00;;;;;;4996230;28;20042;-75
2023/07/16 12:12:31;;;;;;;5.03;1.70;;;25.20;73.00;;;;;;4998270;28;20107;-75
2023/07/16 12:15:17;;;;;;;4.75;2.25;;;25.30;73.70;;;;;;5004145;28;20041;-76
2023/07/16 12:18:04;;;;;;;6.57;2.20;;;25.30;73.10;;;;;;4988061;28;20109;-77
2023/07/16 12:20:50;;;;;;;5.10;1.98;;;25.20;73.30;;;;;;5004086;28;20049;-76
2023/07/16 12:23:36;;;;;;;5.35;2.20;;;25.40;73.40;;;;;;4999078;28;20043;-77
2023/07/16 12:26:22;;;;;;;4.32;1.80;;;25.30;71.60;;;;;;4996506;28;20633;-76
2023/07/16 12:29:08;;;;;;;5.10;2.30;;;25.20;74.10;;;;;;5000714;28;20691;-76
2023/07/16 12:31:54;;;;;;;5.78;2.13;;;25.20;69.70;;;;;;4998213;28;20390;-76
2023/07/16 12:34:40;;;;;;;4.05;2.08;;;25.00;71.30;;;;;;4993277;28;20038;-76
2023/07/16 12:37:26;;;;;;;3.90;2.00;;;24.80;71.90;;;;;;4995365;28;20778;-75
2023/07/16 12:40:12;;;;;;;4.03;2.00;;;25.00;73.20;;;;;;4997163;28;20050;-76
2023/07/16 12:42:58;;;;;;;5.05;2.28;;;25.40;73.10;;;;;;4998070;28;20041;-76
2023/07/16 12:45:44;;;;;;;5.80;1.73;;;25.60;72.20;;;;;;4984831;28;20480;-76
2023/07/16 12:48:33;;;;;;;5.38;2.05;;;25.40;71.80;;;;;;4979838;28;20137;-76
2023/07/16 12:51:19;;;;;;;5.28;2.05;;;25.40;72.40;;;;;;5001972;28;20041;-76
2023/07/16 12:54:05;;;;;;;5.60;2.30;;;25.10;71.60;;;;;;4983471;28;20074;-76
2023/07/16 12:56:51;;;;;;;5.13;2.20;;;25.00;72.90;;;;;;4986569;28;20139;-76
2023/07/16 12:59:37;;;;;;;4.07;2.05;;;25.20;71.60;;;;;;5001844;28;20091;-76
2023/07/16 13:02:23;;;;;;;5.32;2.05;;;24.90;71.50;;;;;;5018991;28;20121;-76
2023/07/16 13:05:09;;;;;;;5.32;2.10;;;24.80;70.40;;;;;;4997369;28;20044;-76
2023/07/16 13:07:55;;;;;;;5.18;2.50;;;24.80;71.10;;;;;;4990922;28;20479;-76
2023/07/16 13:10:41;;;;;;;3.63;2.10;;;24.60;70.00;;;;;;4981735;28;20571;-76
2023/07/16 13:13:28;;;;;;;3.90;2.38;;;24.50;70.80;;;;;;4991780;28;20081;-76
2023/07/16 13:16:14;;;;;;;3.42;2.03;;;24.50;71.40;;;;;;4976160;28;20083;-76
2023/07/16 13:18:59;;;;;;;5.00;2.10;;;24.60;71.50;;;;;;4986396;28;20471;-76
2023/07/16 13:21:45;;;;;;;3.10;2.00;;;25.20;71.20;;;;;;4996642;28;20052;-76
2023/07/16 13:24:31;;;;;;;4.88;2.20;;;25.30;68.70;;;;;;4986476;28;20045;-76
2023/07/16 13:27:22;;;;;;;3.65;2.15;;;25.60;67.90;;;;;;4991328;28;20056;-76
2023/07/16 13:30:09;;;;;;;6.53;2.42;;;25.50;68.10;;;;;;4990848;28;20041;-76
2023/07/16 13:32:55;;;;;;;4.47;2.28;;;25.20;68.80;;;;;;5005253;28;20041;-77
2023/07/16 13:35:41;;;;;;;7.65;2.10;;;25.00;68.50;;;;;;4999405;28;20038;-76
2023/07/16 13:38:27;;;;;;;4.82;2.25;;;25.00;68.10;;;;;;5010081;28;20040;-77
2023/07/16 13:41:13;;;;;;;6.25;2.53;;;25.20;69.80;;;;;;4978307;28;20068;-76
2023/07/16 13:43:59;;;;;;;7.38;2.13;;;25.40;70.00;;;;;;4998271;28;20076;-76
2023/07/16 13:46:47;;;;;;;4.60;2.25;;;25.70;68.00;;;;;;5009515;28;20359;-77
2023/07/16 13:49:33;;;;;;;4.20;2.13;;;26.00;67.80;;;;;;4986562;28;20038;-77
2023/07/16 13:52:19;;;;;;;7.40;2.45;;;26.20;68.10;;;;;;4998828;28;20045;-76
2023/07/16 13:55:05;;;;;;;5.38;2.33;;;26.40;68.60;;;;;;5006123;28;20046;-77
2023/07/16 13:57:51;;;;;;;5.85;2.25;;;26.40;65.80;;;;;;5003036;28;20047;-77
2023/07/16 14:00:37;;;;;;;4.40;2.25;;;25.90;65.60;;;;;;5007842;28;20045;-76
2023/07/16 14:03:23;;;;;;;7.13;2.85;;;26.00;66.60;;;;;;4987221;28;20065;-76
2023/07/16 14:06:09;;;;;;;3.85;2.28;;;26.10;66.20;;;;;;5001609;28;20667;-77
2023/07/16 14:08:55;;;;;;;3.85;2.28;;;25.90;66.40;;;;;;5000425;28;20052;-76
2023/07/16 14:11:41;;;;;;;4.35;2.50;;;25.70;65.50;;;;;;5003949;28;20045;-76
2023/07/16 14:14:27;;;;;;;4.85;2.50;;;25.30;66.80;;;;;;4988303;28;20060;-76
2023/07/16 14:17:13;;;;;;;4.10;2.53;;;25.40;66.10;;;;;;4984190;28;20070;-77
2023/07/16 14:19:59;;;;;;;4.32;2.35;;;25.90;66.80;;;;;;4998255;28;20042;-76
2023/07/16 14:22:45;;;;;;;3.85;2.25;;;25.80;65.80;;;;;;4994534;28;20038;-77
2023/07/16 14:25:31;;;;;;;5.95;2.63;;;26.00;65.20;;;;;;4973705;28;20347;-77
2023/07/16 14:28:17;;;;;;;5.15;2.60;;;26.30;66.80;;;;;;5003446;28;20053;-77